»·PEaware :: DPJ335 KVCV-KSAN

DPJ335 :: KVCV-KSAN

FLIGHT INFORMATION

Flight Status: Arrived
Operator: Unknown
More flights by this operator :: More flights under this callsign
Pilot: Juan B. (20291)
Aircraft: AIRBUS A321
(A321)
More flights by this aircraft type
Origin: KVCV Socal Logistics
United States
Destination: KSAN San Diego Intl-Lindbergh
United States
More flights between these airports :: More routes between these airports
Route: +PMD LAX COMIX2
File this flight plan on PilotEdge
Remarks: DPJ callsign "Jet Card"
Altitude:
(Current/Filed)
24,000ft
Speed:
(Current/Filed)
430kts
Departed: 20-Aug-20 05:32 PM
Arrived: 20-Aug-20 06:09 PM
Distance/Time
Traveled:
112nm/0:37
Distance/Time
To Go:
Arrived

Flight Plot

Page will automatically refresh every two minutes.

Flight plan parsing failed; only flown route is shown


Map Options




Map Legend


Flown Route
Filed Route
Departure Airport
Arrival Airport
Navaid (VOR, NDB)
Fix

Horizontal Profiles

Position Reports

Time Latitude Longitude Heading Altitude Ground
Speed
20-Aug-20 17:06 34.584420 -117.381284 315 2882ft 0kts
20-Aug-20 17:07 34.584420 -117.381284 315 2882ft 0kts
20-Aug-20 17:08 34.584420 -117.381284 315 2882ft 0kts
20-Aug-20 17:09 34.584420 -117.381284 315 2882ft 0kts
20-Aug-20 17:10 34.584420 -117.381284 315 2882ft 0kts
20-Aug-20 17:11 34.584420 -117.381284 315 2882ft 0kts
20-Aug-20 17:12 34.584420 -117.381284 315 2882ft 0kts
20-Aug-20 17:13 34.584420 -117.381284 315 2882ft 0kts
20-Aug-20 17:14 34.584420 -117.381284 315 2882ft 0kts
20-Aug-20 17:15 34.584420 -117.381284 315 2882ft 0kts
20-Aug-20 17:16 34.584420 -117.381284 315 2882ft 0kts
20-Aug-20 17:17 34.584420 -117.381284 315 2882ft 0kts
20-Aug-20 17:18 34.584420 -117.381284 315 2882ft 0kts
20-Aug-20 17:19 34.584420 -117.381284 315 2882ft 0kts
20-Aug-20 17:20 34.584420 -117.381284 315 2882ft 0kts
20-Aug-20 17:21 34.584420 -117.381284 315 2882ft 0kts
20-Aug-20 17:22 34.584420 -117.381284 315 2882ft 0kts
20-Aug-20 17:23 34.584420 -117.381284 315 2882ft 0kts
20-Aug-20 17:24 34.584420 -117.381284 315 2882ft 0kts
20-Aug-20 17:25 34.585830 -117.381294 47 2879ft 13kts
20-Aug-20 17:26 34.589034 -117.377385 44 2875ft 19kts
20-Aug-20 17:27 34.593142 -117.372338 66 2865ft 23kts
20-Aug-20 17:28 34.594370 -117.367723 10 2858ft 14kts
20-Aug-20 17:29 34.599121 -117.366608 11 2849ft 15kts
20-Aug-20 17:30 34.599954 -117.367209 226 2848ft 28kts
20-Aug-20 17:31 34.571741 -117.402814 239 4741ft 182kts
20-Aug-20 17:32 34.564157 -117.465098 261 6598ft 200kts
20-Aug-20 17:33 34.564227 -117.542626 280 8022ft 265kts
20-Aug-20 17:34 34.577712 -117.637163 278 10284ft 295kts
20-Aug-20 17:35 34.591447 -117.745311 278 11512ft 358kts
20-Aug-20 17:36 34.605851 -117.860599 278 12378ft 406kts
20-Aug-20 17:37 34.621024 -117.991989 270 13677ft 435kts
20-Aug-20 17:38 34.554276 -118.106760 203 15712ft 440kts
20-Aug-20 17:39 34.439654 -118.165682 202 17649ft 451kts
20-Aug-20 17:40 34.323971 -118.226532 202 19583ft 460kts
20-Aug-20 17:41 34.211483 -118.285864 203 21343ft 469kts
20-Aug-20 17:42 34.093782 -118.347801 203 22959ft 479kts
20-Aug-20 17:43 33.970422 -118.402761 183 23767ft 479kts
20-Aug-20 17:44 33.862635 -118.341992 133 23787ft 476kts
20-Aug-20 17:45 33.774062 -118.225780 132 23775ft 476kts
20-Aug-20 17:46 33.686767 -118.111122 132 23778ft 476kts
20-Aug-20 17:47 33.598332 -117.995406 132 23763ft 476kts
20-Aug-20 17:48 33.507680 -117.883253 135 21511ft 459kts
20-Aug-20 17:49 33.419112 -117.782519 137 19136ft 440kts
20-Aug-20 17:50 33.331222 -117.688592 137 16926ft 423kts
20-Aug-20 17:51 33.250608 -117.602717 137 14846ft 409kts
20-Aug-20 17:52 33.176157 -117.524306 137 12870ft 392kts
20-Aug-20 17:53 33.090567 -117.444473 144 11464ft 352kts
20-Aug-20 17:54 33.021746 -117.387119 143 10846ft 307kts
20-Aug-20 17:55 32.964552 -117.339096 144 10367ft 261kts
20-Aug-20 17:56 32.908755 -117.292224 144 9775ft 262kts
20-Aug-20 17:57 32.855584 -117.248198 144 8679ft 257kts
20-Aug-20 17:58 32.810976 -117.199394 106 7582ft 253kts
20-Aug-20 17:59 32.794461 -117.125502 107 6491ft 249kts
20-Aug-20 18:00 32.776900 -117.055750 107 5999ft 224kts
20-Aug-20 18:01 32.762806 -116.997609 107 5668ft 193kts
20-Aug-20 18:02 32.732966 -116.955173 167 4455ft 185kts
20-Aug-20 18:03 32.691341 -116.979362 242 3700ft 179kts
20-Aug-20 18:04 32.696816 -117.039446 283 2701ft 173kts
20-Aug-20 18:05 32.711755 -117.099808 282 1686ft 166kts
20-Aug-20 18:06 32.723956 -117.150317 281 666ft 142kts
20-Aug-20 18:07 32.733977 -117.191534 286 22ft 69kts
20-Aug-20 18:08 32.734857 -117.199014 245 19ft 12kts
20-Aug-20 18:09 32.733934 -117.200500 255 19ft 0kts

Navigation Log

Ident Type
Flight plan parsing failed, navigation log unavailable